createdAt,value
2022-09-15T00:02:16.957Z,1.30
2022-09-15T00:05:04.149Z,1.20
2022-09-15T00:07:32.390Z,1.60
2022-09-15T00:10:37.344Z,1.77
2022-09-15T00:13:05.633Z,1.38
2022-09-15T00:15:52.528Z,1.30
2022-09-15T00:18:20.843Z,1.38
2022-09-15T00:20:49.015Z,1.52
2022-09-15T00:23:17.831Z,1.20
2022-09-15T00:28:56.302Z,1.10
2022-09-15T00:31:26.558Z,1.30
2022-09-15T00:33:56.993Z,1.95
2022-09-15T00:36:26.431Z,1.25
2022-09-15T00:39:12.880Z,1.45
2022-09-15T00:41:41.793Z,1.30
2022-09-15T00:44:37.390Z,1.30
2022-09-15T00:47:39.118Z,1.15
2022-09-15T00:50:15.138Z,1.10
2022-09-15T00:53:13.898Z,1.30
2022-09-15T00:55:48.798Z,1.85
2022-09-15T00:58:27.138Z,1.52
2022-09-15T01:01:01.037Z,1.02
2022-09-15T01:03:33.495Z,1.08
2022-09-15T01:06:41.623Z,0.82
2022-09-15T01:09:38.041Z,0.98
2022-09-15T01:12:06.417Z,0.98
2022-09-15T01:14:34.581Z,0.98
2022-09-15T01:20:53.051Z,0.73
2022-09-15T01:23:38.642Z,0.75
2022-09-15T01:26:16.619Z,1.15
2022-09-15T01:29:25.870Z,0.90
2022-09-15T01:32:48.327Z,1.00
2022-09-15T01:38:29.378Z,0.98
2022-09-15T01:41:15.965Z,0.88
2022-09-15T01:44:07.583Z,1.10
2022-09-15T01:46:40.697Z,1.13
2022-09-15T01:49:11.558Z,1.17
2022-09-15T01:51:41.365Z,1.33
2022-09-15T01:54:11.042Z,0.70
2022-09-15T01:56:41.231Z,1.20
2022-09-15T01:59:10.122Z,0.93
2022-09-15T02:01:45.550Z,1.15
2022-09-15T02:04:32.267Z,0.90
2022-09-15T02:07:11.977Z,1.65
2022-09-15T02:10:12.688Z,2.33
2022-09-15T02:12:58.784Z,0.88
2022-09-15T02:15:43.899Z,0.82
2022-09-15T02:19:09.182Z,1.00
2022-09-15T02:22:02.987Z,1.15
2022-09-15T02:24:37.469Z,1.20
2022-09-15T02:27:10.680Z,1.10
2022-09-15T02:30:03.621Z,1.10
2022-09-15T02:32:34.981Z,1.05
2022-09-15T02:37:37.395Z,1.00
2022-09-15T02:40:06.870Z,1.00
2022-09-15T02:42:58.676Z,1.08
2022-09-15T02:45:46.089Z,1.02
2022-09-15T02:48:15.117Z,1.15
2022-09-15T02:50:43.250Z,1.08
2022-09-15T02:53:11.318Z,1.40
2022-09-15T02:55:40.183Z,1.23
2022-09-15T02:58:08.257Z,1.20
2022-09-15T03:00:39.144Z,1.10
2022-09-15T03:03:07.343Z,1.25
2022-09-15T03:08:39.360Z,1.20
2022-09-15T03:11:07.617Z,1.08
2022-09-15T03:13:35.874Z,1.20
2022-09-15T03:16:15.346Z,2.00
2022-09-15T03:18:43.616Z,1.92
2022-09-15T03:21:15.294Z,1.77
2022-09-15T03:26:11.750Z,2.67
2022-09-15T03:28:40.577Z,2.30
2022-09-15T03:31:10.055Z,2.80
2022-09-15T03:33:38.362Z,3.50
2022-09-15T03:36:07.166Z,4.35
2022-09-15T03:38:35.294Z,4.10
2022-09-15T03:41:07.974Z,4.03
2022-09-15T03:43:37.179Z,4.60
2022-09-15T03:46:07.465Z,4.65
2022-09-15T03:48:36.768Z,5.90
2022-09-15T03:51:24.358Z,5.60
2022-09-15T03:56:38.379Z,5.32
2022-09-15T03:59:06.617Z,4.47
2022-09-15T04:01:35.657Z,5.07
2022-09-15T04:04:03.878Z,5.68
2022-09-15T04:06:50.664Z,4.75
2022-09-15T04:09:37.182Z,4.53
2022-09-15T04:12:05.577Z,4.95
2022-09-15T04:14:33.686Z,4.15
2022-09-15T04:17:01.886Z,4.35
2022-09-15T04:19:48.631Z,4.03
2022-09-15T04:22:17.948Z,4.50
2022-09-15T04:25:05.264Z,4.60
2022-09-15T04:27:35.912Z,4.57
2022-09-15T04:30:22.439Z,5.38
2022-09-15T04:35:38.130Z,4.88
2022-09-15T04:40:52.165Z,4.78
2022-09-15T04:43:20.614Z,3.67
2022-09-15T04:45:49.011Z,3.13
2022-09-15T04:48:17.183Z,2.60
2022-09-15T04:51:06.490Z,3.25
2022-09-15T04:53:35.425Z,2.50
2022-09-15T04:56:09.248Z,2.00
2022-09-15T04:58:43.722Z,1.50
2022-09-15T05:01:15.032Z,1.38
2022-09-15T05:04:04.302Z,2.00
2022-09-15T05:06:32.946Z,1.75
2022-09-15T05:09:00.966Z,2.30
2022-09-15T05:11:47.787Z,2.10
2022-09-15T05:14:16.004Z,2.30
2022-09-15T05:16:44.038Z,2.05
2022-09-15T05:19:12.423Z,1.80
2022-09-15T05:21:40.415Z,1.63
2022-09-15T05:24:08.402Z,1.83
2022-09-15T05:26:36.412Z,1.60
2022-09-15T05:29:04.803Z,1.50
2022-09-15T05:31:34.222Z,1.50
2022-09-15T05:34:20.969Z,1.50
2022-09-15T05:36:49.090Z,1.73
2022-09-15T05:39:35.464Z,1.30
2022-09-15T05:42:03.499Z,1.60
2022-09-15T05:44:31.881Z,1.48
2022-09-15T05:46:59.988Z,2.17
2022-09-15T05:52:15.010Z,1.50
2022-09-15T05:54:43.002Z,1.30
2022-09-15T05:57:11.036Z,1.50
2022-09-15T05:59:39.573Z,1.35
2022-09-15T06:02:09.245Z,1.30
2022-09-15T06:04:55.699Z,1.27
2022-09-15T06:10:09.976Z,1.52
2022-09-15T06:12:38.235Z,1.20
2022-09-15T06:15:06.714Z,1.52
2022-09-15T06:17:34.669Z,1.38
2022-09-15T06:20:06.347Z,1.05
2022-09-15T06:22:54.249Z,1.10
2022-09-15T06:25:22.241Z,1.20
2022-09-15T06:27:50.946Z,1.15
2022-09-15T06:30:19.026Z,1.73
2022-09-15T06:32:48.552Z,1.80
2022-09-15T06:35:16.702Z,1.88
2022-09-15T06:37:44.795Z,1.42
2022-09-15T06:40:13.036Z,1.70
2022-09-15T06:42:41.008Z,2.35
2022-09-15T06:45:09.445Z,1.63
2022-09-15T06:47:37.413Z,2.20
2022-09-15T06:50:05.931Z,1.50
2022-09-15T06:52:33.967Z,1.92
2022-09-15T06:55:02.040Z,1.60
2022-09-15T06:57:30.022Z,1.65
2022-09-15T06:59:58.001Z,2.20
2022-09-15T07:02:26.153Z,1.88
2022-09-15T07:04:54.197Z,2.13
2022-09-15T07:07:22.146Z,2.15
2022-09-15T07:09:50.339Z,1.38
2022-09-15T07:12:18.441Z,2.00
2022-09-15T07:14:46.474Z,1.75
2022-09-15T07:17:32.968Z,2.30
2022-09-15T07:20:02.353Z,2.10
2022-09-15T07:22:30.389Z,1.63
2022-09-15T07:24:58.307Z,2.22
2022-09-15T07:27:31.725Z,1.70
2022-09-15T07:29:59.691Z,2.17
2022-09-15T07:32:27.688Z,2.25
2022-09-15T07:37:41.259Z,3.45
2022-09-15T07:40:09.934Z,3.60
2022-09-15T07:42:37.990Z,3.60
2022-09-15T07:45:06.539Z,3.20
2022-09-15T07:47:53.057Z,3.63
2022-09-15T07:50:21.026Z,4.20
2022-09-15T07:52:49.267Z,3.45
2022-09-15T07:55:18.511Z,3.75
2022-09-15T07:57:46.529Z,4.13
2022-09-15T08:00:15.835Z,4.65
2022-09-15T08:02:43.893Z,4.07
2022-09-15T08:05:11.813Z,4.00
2022-09-15T08:07:40.325Z,3.58
2022-09-15T08:10:10.273Z,2.55
2022-09-15T08:12:38.420Z,2.13
2022-09-15T08:15:25.145Z,2.20
2022-09-15T08:17:53.291Z,2.33
2022-09-15T08:20:21.677Z,1.80
2022-09-15T08:22:49.962Z,1.38
2022-09-15T08:25:18.015Z,1.90
2022-09-15T08:27:45.961Z,2.25
2022-09-15T08:30:14.193Z,1.70
2022-09-15T08:32:42.150Z,1.65
2022-09-15T08:35:12.531Z,1.88
2022-09-15T08:37:40.748Z,1.75
2022-09-15T08:43:14.589Z,1.42
2022-09-15T08:46:12.751Z,1.25
2022-09-15T08:48:47.893Z,1.60
2022-09-15T08:51:23.933Z,1.98
2022-09-15T08:54:00.011Z,1.60
2022-09-15T08:56:29.892Z,1.88
2022-09-15T08:58:57.947Z,2.15
2022-09-15T09:01:38.832Z,1.88
2022-09-15T09:04:56.584Z,1.80
2022-09-15T09:07:41.022Z,1.77
2022-09-15T09:10:15.680Z,1.80
2022-09-15T09:16:06.632Z,1.70
2022-09-15T09:19:05.037Z,1.92
2022-09-15T09:21:39.542Z,1.83
2022-09-15T09:24:21.701Z,1.70
2022-09-15T09:26:54.668Z,1.58
2022-09-15T09:29:33.473Z,1.70
2022-09-15T09:32:02.785Z,2.10
2022-09-15T09:35:03.939Z,1.80
2022-09-15T09:37:33.738Z,1.60
2022-09-15T09:40:01.965Z,1.45
2022-09-15T09:42:35.042Z,2.83
2022-09-15T09:45:05.275Z,1.73
2022-09-15T09:47:36.777Z,1.30
2022-09-15T09:50:25.222Z,1.40
2022-09-15T09:55:41.523Z,1.60
2022-09-15T10:00:41.558Z,1.40
2022-09-15T10:03:25.482Z,1.90
2022-09-15T10:06:11.582Z,1.60
2022-09-15T10:08:54.399Z,1.42
2022-09-15T10:13:56.497Z,1.50
2022-09-15T10:16:24.731Z,1.42
2022-09-15T10:18:58.573Z,1.98
2022-09-15T10:21:26.876Z,1.35
2022-09-15T10:24:31.743Z,1.60
2022-09-15T10:27:25.648Z,1.35
2022-09-15T10:29:54.421Z,1.30
2022-09-15T10:32:25.999Z,1.13
2022-09-15T10:35:05.749Z,1.15
2022-09-15T10:37:56.829Z,1.20
2022-09-15T10:40:34.557Z,1.40
2022-09-15T10:43:11.413Z,1.40
2022-09-15T10:48:37.239Z,1.30
2022-09-15T10:51:43.253Z,1.33
2022-09-15T10:54:25.093Z,1.20
2022-09-15T10:57:01.600Z,1.35
2022-09-15T10:59:40.743Z,1.05
2022-09-15T11:02:11.846Z,1.83
2022-09-15T11:08:00.206Z,1.33
2022-09-15T11:11:04.518Z,1.05
2022-09-15T11:13:52.712Z,1.50
2022-09-15T11:17:01.869Z,0.98
2022-09-15T11:19:35.881Z,1.15
2022-09-15T11:22:12.522Z,1.15
2022-09-15T11:25:23.673Z,1.30
2022-09-15T11:28:02.850Z,1.27
2022-09-15T11:30:55.613Z,1.20
2022-09-15T11:33:40.223Z,1.38
2022-09-15T11:36:17.371Z,1.40
2022-09-15T11:39:02.244Z,1.10
2022-09-15T11:41:56.767Z,1.38
2022-09-15T11:44:37.533Z,1.30
2022-09-15T11:47:05.457Z,1.65
2022-09-15T11:49:39.554Z,1.20
2022-09-15T11:52:20.534Z,1.58
2022-09-15T11:55:15.879Z,1.20
2022-09-15T11:58:16.384Z,1.30
2022-09-15T12:01:12.625Z,1.20
2022-09-15T12:04:30.044Z,1.52
2022-09-15T12:07:04.864Z,1.33
2022-09-15T12:09:33.971Z,1.60
2022-09-15T12:12:07.797Z,1.30
2022-09-15T12:14:41.601Z,1.45
2022-09-15T12:17:25.325Z,1.05
2022-09-15T12:20:06.617Z,1.60
2022-09-15T12:22:46.261Z,2.08
2022-09-15T12:25:14.347Z,1.40
2022-09-15T12:27:42.306Z,1.13
2022-09-15T12:30:40.733Z,1.25
2022-09-15T12:33:42.486Z,1.30
2022-09-15T12:36:38.659Z,1.70
2022-09-15T12:39:24.509Z,1.38
2022-09-15T12:42:00.859Z,1.00
2022-09-15T12:44:49.685Z,1.38
2022-09-15T12:47:23.135Z,1.75
2022-09-15T12:49:53.144Z,3.42
2022-09-15T12:52:22.562Z,1.10
2022-09-15T12:54:54.612Z,2.67
2022-09-15T12:57:35.909Z,1.73
2022-09-15T13:00:29.219Z,1.60
2022-09-15T13:03:29.175Z,1.65
2022-09-15T13:06:26.090Z,1.55
2022-09-15T13:09:06.049Z,2.03
2022-09-15T13:11:39.802Z,1.50
2022-09-15T13:14:22.887Z,1.50
2022-09-15T13:17:10.958Z,1.40
2022-09-15T13:19:48.140Z,1.30
2022-09-15T13:22:37.104Z,1.60
2022-09-15T13:25:15.924Z,1.40
2022-09-15T13:27:52.320Z,1.48
2022-09-15T13:30:44.803Z,2.28
2022-09-15T13:39:47.094Z,1.42
2022-09-15T13:42:39.927Z,1.27
2022-09-15T13:45:27.181Z,1.33
2022-09-15T13:48:23.401Z,1.00
2022-09-15T13:50:58.082Z,1.23
2022-09-15T13:54:02.777Z,1.20
2022-09-15T13:56:38.766Z,1.40
2022-09-15T13:59:16.353Z,1.17
2022-09-15T14:01:45.583Z,1.08
2022-09-15T14:04:20.525Z,1.40
2022-09-15T14:09:47.740Z,1.70
2022-09-15T14:12:18.491Z,1.60
2022-09-15T14:14:51.787Z,1.42
2022-09-15T14:17:24.858Z,1.13
2022-09-15T14:19:55.453Z,1.60
2022-09-15T14:22:32.366Z,1.88
2022-09-15T14:25:07.128Z,1.40
2022-09-15T14:27:36.793Z,1.77
2022-09-15T14:30:08.361Z,1.50
2022-09-15T14:32:40.265Z,1.60
2022-09-15T14:35:14.925Z,1.38
2022-09-15T14:40:30.244Z,1.05
2022-09-15T14:42:58.628Z,1.30
2022-09-15T14:48:30.969Z,1.15
2022-09-15T14:51:04.998Z,1.23
2022-09-15T14:53:35.639Z,1.38
2022-09-15T14:56:11.954Z,1.20
2022-09-15T14:58:54.525Z,1.20
2022-09-15T15:01:43.942Z,1.50
2022-09-15T15:04:39.218Z,1.60
2022-09-15T15:07:13.782Z,1.05
2022-09-15T15:09:41.806Z,1.63
2022-09-15T15:12:33.081Z,1.08
2022-09-15T15:15:01.852Z,1.10
2022-09-15T15:17:38.964Z,1.50
2022-09-15T15:20:10.049Z,1.33
2022-09-15T15:22:39.479Z,1.33
2022-09-15T15:25:37.521Z,1.40
2022-09-15T15:28:06.722Z,1.35
2022-09-15T15:30:45.809Z,1.55
2022-09-15T15:33:27.701Z,1.63
2022-09-15T15:36:10.030Z,1.63
2022-09-15T15:38:59.566Z,1.30
2022-09-15T15:41:45.887Z,1.40
2022-09-15T15:44:34.212Z,1.10
2022-09-15T15:47:23.503Z,1.38
2022-09-15T15:50:12.433Z,1.50
2022-09-15T15:52:42.323Z,1.55
2022-09-15T15:55:15.160Z,1.50
2022-09-15T15:57:43.592Z,1.80
2022-09-15T16:00:21.325Z,1.10
2022-09-15T16:02:54.230Z,1.85
2022-09-15T16:05:27.138Z,1.20
2022-09-15T16:07:56.986Z,1.30
2022-09-15T16:10:30.289Z,1.45
2022-09-15T16:12:58.307Z,1.67
2022-09-15T16:15:27.459Z,1.38
2022-09-15T16:17:55.430Z,1.30
2022-09-15T16:20:25.324Z,1.25
2022-09-15T16:22:53.374Z,1.40
2022-09-15T16:25:35.888Z,1.50
2022-09-15T16:28:04.460Z,1.17
2022-09-15T16:30:33.046Z,0.95
2022-09-15T16:33:01.272Z,1.35
2022-09-15T16:35:43.995Z,1.23
2022-09-15T16:38:12.009Z,1.15
2022-09-15T16:40:39.908Z,1.35
2022-09-15T16:43:15.167Z,1.23
2022-09-15T16:45:44.317Z,1.40
2022-09-15T16:48:13.115Z,1.25
2022-09-15T16:50:50.294Z,1.08
2022-09-15T16:53:26.282Z,1.20
2022-09-15T16:55:57.942Z,1.15
2022-09-15T16:58:25.926Z,1.10
2022-09-15T17:00:54.179Z,1.25
2022-09-15T17:03:24.234Z,1.80
2022-09-15T17:05:54.220Z,1.13
2022-09-15T17:08:24.827Z,1.05
2022-09-15T17:10:53.793Z,1.52
2022-09-15T17:13:30.120Z,1.48
2022-09-15T17:15:59.906Z,1.30
2022-09-15T17:18:29.101Z,1.17
2022-09-15T17:20:57.354Z,0.90
2022-09-15T17:23:27.994Z,1.88
2022-09-15T17:25:59.305Z,1.27
2022-09-15T17:31:20.852Z,1.08
2022-09-15T17:33:50.323Z,1.00
2022-09-15T17:36:18.896Z,1.00
2022-09-15T17:38:49.218Z,1.10
2022-09-15T17:41:19.519Z,1.08
2022-09-15T17:43:47.878Z,1.83
2022-09-15T17:46:15.989Z,1.00
2022-09-15T17:48:44.038Z,1.30
2022-09-15T17:51:19.742Z,1.00
2022-09-15T17:53:48.081Z,1.25
2022-09-15T17:59:01.735Z,1.10
2022-09-15T18:01:29.778Z,1.20
2022-09-15T18:03:57.936Z,1.20
2022-09-15T18:06:25.876Z,1.40
2022-09-15T18:08:53.860Z,1.88
2022-09-15T18:11:41.010Z,1.38
2022-09-15T18:14:10.037Z,1.20
2022-09-15T18:16:38.000Z,0.88
2022-09-15T18:19:05.895Z,1.20
2022-09-15T18:21:53.455Z,1.35
2022-09-15T18:24:21.589Z,1.45
2022-09-15T18:26:49.551Z,1.25
2022-09-15T18:29:17.463Z,1.38
2022-09-15T18:31:45.433Z,1.20
2022-09-15T18:34:32.086Z,1.00
2022-09-15T18:37:00.222Z,1.55
2022-09-15T18:39:28.253Z,0.90
2022-09-15T18:41:56.490Z,1.30
2022-09-15T18:44:24.633Z,1.45
2022-09-15T18:46:52.689Z,1.10
2022-09-15T18:49:20.708Z,1.10
2022-09-15T18:51:51.602Z,1.00
2022-09-15T18:54:19.918Z,1.20
2022-09-15T18:56:47.892Z,1.35
2022-09-15T18:59:17.804Z,1.48
2022-09-15T19:01:46.080Z,1.65
2022-09-15T19:04:14.422Z,1.35
2022-09-15T19:06:42.400Z,1.20
2022-09-15T19:09:11.180Z,0.90
2022-09-15T19:11:39.246Z,1.45
2022-09-15T19:14:07.937Z,1.25
2022-09-15T19:16:56.426Z,1.40
2022-09-15T19:19:24.434Z,1.52
2022-09-15T19:21:52.451Z,1.30
2022-09-15T19:24:20.379Z,1.40
2022-09-15T19:26:48.480Z,1.40
2022-09-15T19:29:16.590Z,1.30
2022-09-15T19:31:44.542Z,1.23
2022-09-15T19:34:12.537Z,1.33
2022-09-15T19:36:40.594Z,1.50
2022-09-15T19:39:08.592Z,1.70
2022-09-15T19:41:36.526Z,1.20
2022-09-15T19:44:05.029Z,1.10
2022-09-15T19:46:32.982Z,1.92
2022-09-15T19:49:02.481Z,1.17
2022-09-15T19:51:31.711Z,1.33
2022-09-15T19:54:00.426Z,1.20
2022-09-15T19:56:29.771Z,1.00
2022-09-15T19:58:59.225Z,1.17
2022-09-15T20:01:29.771Z,1.67
2022-09-15T20:03:57.905Z,1.15
2022-09-15T20:06:30.190Z,1.40
2022-09-15T20:09:00.627Z,1.35
2022-09-15T20:11:29.819Z,0.93
2022-09-15T20:13:58.050Z,1.70
2022-09-15T20:16:26.364Z,1.83
2022-09-15T20:18:55.094Z,1.50
2022-09-15T20:24:17.776Z,1.70
2022-09-15T20:26:45.766Z,1.33
2022-09-15T20:29:14.601Z,1.52
2022-09-15T20:31:42.937Z,1.40
2022-09-15T20:34:11.012Z,1.92
2022-09-15T20:36:39.794Z,1.33
2022-09-15T20:39:13.410Z,1.30
2022-09-15T20:41:46.263Z,1.17
2022-09-15T20:44:15.214Z,1.00
2022-09-15T20:46:43.501Z,1.35
2022-09-15T20:49:12.629Z,1.27
2022-09-15T20:51:40.694Z,1.00
2022-09-15T20:54:11.085Z,1.60
2022-09-15T20:56:39.063Z,1.17
2022-09-15T20:59:10.552Z,1.10
2022-09-15T21:01:39.715Z,1.73
2022-09-15T21:04:09.237Z,1.02
2022-09-15T21:06:37.637Z,1.55
2022-09-15T21:09:06.449Z,1.45
2022-09-15T21:11:34.780Z,1.70
2022-09-15T21:14:03.470Z,2.00
2022-09-15T21:16:50.361Z,1.25
2022-09-15T21:19:18.396Z,1.85
2022-09-15T21:21:46.346Z,1.08
2022-09-15T21:24:14.343Z,1.52
2022-09-15T21:27:01.039Z,1.30
2022-09-15T21:29:48.482Z,1.30
2022-09-15T21:32:17.723Z,1.00
2022-09-15T21:34:47.541Z,1.38
2022-09-15T21:40:01.408Z,1.73
2022-09-15T21:42:29.774Z,1.33
2022-09-15T21:44:58.214Z,2.70
2022-09-15T21:47:26.381Z,0.90
2022-09-15T21:50:13.205Z,1.30
2022-09-15T21:52:41.366Z,2.03
2022-09-15T21:55:28.189Z,1.20
2022-09-15T21:57:56.237Z,1.38
2022-09-15T22:00:24.417Z,1.30
2022-09-15T22:02:52.652Z,1.50
2022-09-15T22:05:20.730Z,1.48
2022-09-15T22:07:48.968Z,1.40
2022-09-15T22:10:17.163Z,1.73
2022-09-15T22:12:45.203Z,1.58
2022-09-15T22:15:31.984Z,1.48
2022-09-15T22:18:00.346Z,1.33
2022-09-15T22:20:29.592Z,1.40
2022-09-15T22:23:01.480Z,2.28
2022-09-15T22:25:29.765Z,1.67
2022-09-15T22:27:57.866Z,1.45
2022-09-15T22:30:44.616Z,1.48
2022-09-15T22:33:12.785Z,1.55
2022-09-15T22:35:40.819Z,1.25
2022-09-15T22:38:08.915Z,1.83
2022-09-15T22:40:37.100Z,1.30
2022-09-15T22:43:24.280Z,1.23
2022-09-15T22:45:54.063Z,1.20
2022-09-15T22:48:22.343Z,1.60
2022-09-15T22:51:28.219Z,0.95
2022-09-15T22:54:15.323Z,1.05
2022-09-15T22:56:43.384Z,1.17
2022-09-15T22:59:11.491Z,1.23
2022-09-15T23:01:58.335Z,2.50
2022-09-15T23:04:26.471Z,1.55
2022-09-15T23:06:54.492Z,1.25
2022-09-15T23:09:41.189Z,1.58
2022-09-15T23:12:30.985Z,1.40
2022-09-15T23:14:59.198Z,1.50
2022-09-15T23:17:27.731Z,1.30
2022-09-15T23:19:55.893Z,1.60
2022-09-15T23:22:24.201Z,1.30
2022-09-15T23:24:52.546Z,1.33
2022-09-15T23:27:38.976Z,1.70
2022-09-15T23:30:07.440Z,1.20
2022-09-15T23:32:35.652Z,1.98
2022-09-15T23:35:03.840Z,1.67
2022-09-15T23:37:31.958Z,1.15
2022-09-15T23:42:45.453Z,1.30
2022-09-15T23:45:13.633Z,1.98
2022-09-15T23:47:41.759Z,1.38
2022-09-15T23:50:10.140Z,2.75
2022-09-15T23:52:38.373Z,1.20
2022-09-15T23:55:06.880Z,1.63
2022-09-15T23:57:35.186Z,1.33
